Time;durP1;ratioP1;P1;durP2;ratioP2;P2;SDS_P1;SDS_P2;PMS_P1;PMS_P2;Temp;Humidity;BMP_temperature;BMP_pressure;BME280_temperature;BME280_humidity;BME280_pressure;Samples;Min_cycle;Max_cycle;Signal;HPM_P1;HPM_P2
2022/10/08 00:01:04;;;;;;;31.13;12.40;;;;;;;14.19;85.28;100189.53;5072115;28;20453;-88
2022/10/08 00:03:33;;;;;;;34.08;11.77;;;;;;;14.14;85.44;100187.28;5083266;28;20024;-87
2022/10/08 00:06:23;;;;;;;25.95;12.40;;;;;;;14.15;85.29;100181.00;5074471;28;20044;-87
2022/10/08 00:08:52;;;;;;;37.78;13.07;;;;;;;14.14;85.36;100181.97;5094505;28;20496;-87
2022/10/08 00:11:31;;;;;;;25.35;12.95;;;;;;;14.02;85.40;100185.84;5049703;28;20040;-87
2022/10/08 00:14:00;;;;;;;20.80;11.73;;;;;;;14.14;85.54;100191.81;5078189;28;20044;-87
2022/10/08 00:16:36;;;;;;;26.00;14.30;;;;;;;14.15;85.55;100197.00;5052985;28;20052;-87
2022/10/08 00:19:09;;;;;;;28.77;12.50;;;;;;;14.09;85.77;100190.44;5045041;28;20063;-87
2022/10/08 00:21:38;;;;;;;27.70;12.75;;;;;;;14.09;85.62;100195.78;5068915;28;20040;-87
2022/10/08 00:24:06;;;;;;;23.83;12.30;;;;;;;14.11;85.84;100190.28;5063147;28;20040;-87
2022/10/08 00:26:35;;;;;;;20.40;12.75;;;;;;;14.11;85.70;100193.78;5071457;28;20047;-87
2022/10/08 00:29:10;;;;;;;29.73;13.70;;;;;;;14.11;85.66;100187.59;5060845;28;20066;-87
2022/10/08 00:31:39;;;;;;;20.88;12.45;;;;;;;14.13;85.88;100187.47;5054906;28;20560;-87
2022/10/08 00:34:09;;;;;;;26.92;14.27;;;;;;;14.08;85.74;100187.91;5059377;28;20205;-87
2022/10/08 00:36:36;;;;;;;21.83;12.32;;;;;;;14.11;85.72;100196.44;5059824;28;20051;-87
2022/10/08 00:39:15;;;;;;;31.00;13.73;;;;;;;14.10;85.66;100180.59;5071926;28;20637;-87
2022/10/08 00:41:43;;;;;;;28.92;14.10;;;;;;;14.11;85.84;100179.59;5044780;28;20475;-87
2022/10/08 00:44:44;;;;;;;24.05;12.45;;;;;;;13.92;86.38;100171.69;5053215;28;20111;-86
2022/10/08 00:47:20;;;;;;;23.88;12.55;;;;;;;14.05;86.13;100174.88;5080177;28;20510;-87
2022/10/08 00:49:50;;;;;;;27.75;12.80;;;;;;;14.06;86.06;100174.69;5103517;28;20064;-87
2022/10/08 00:52:17;;;;;;;30.15;13.65;;;;;;;14.07;86.22;100175.56;5059722;28;20574;-88
2022/10/08 00:54:44;;;;;;;20.23;12.63;;;;;;;14.06;86.21;100169.34;5060944;28;20051;-88
2022/10/08 00:57:11;;;;;;;25.83;11.82;;;;;;;14.09;86.07;100171.75;5088145;28;20056;-88
2022/10/08 00:59:38;;;;;;;30.48;13.88;;;;;;;14.10;86.15;100169.91;5070054;28;20093;-87
2022/10/08 01:02:07;;;;;;;31.60;12.70;;;;;;;14.06;85.75;100169.34;5081755;28;20127;-87
2022/10/08 01:04:35;;;;;;;24.50;11.90;;;;;;;14.10;85.45;100172.59;5031479;28;20076;-88
2022/10/08 01:07:25;;;;;;;24.33;11.93;;;;;;;13.92;85.88;100172.56;5063391;28;20040;-87
2022/10/08 01:09:59;;;;;;;29.58;11.73;;;;;;;14.02;85.75;100172.50;5069004;28;20047;-87
2022/10/08 01:12:39;;;;;;;23.70;11.95;;;;;;;13.91;85.75;100168.19;5041826;28;20096;-88
2022/10/08 01:15:22;;;;;;;29.33;11.00;;;;;;;13.98;85.72;100163.09;5052844;28;20101;-87
2022/10/08 01:18:01;;;;;;;19.05;11.40;;;;;;;13.90;85.13;100161.19;5080270;28;20048;-87
2022/10/08 01:21:03;;;;;;;35.97;14.32;;;;;;;13.81;85.10;100164.72;5084403;28;20047;-87
2022/10/08 01:23:51;;;;;;;27.48;11.98;;;;;;;13.80;85.24;100168.41;5058778;28;20051;-87
2022/10/08 01:26:39;;;;;;;27.65;12.18;;;;;;;13.71;85.38;100167.44;5092394;28;20108;-87
2022/10/08 01:29:12;;;;;;;24.10;12.48;;;;;;;13.83;84.91;100165.44;5088912;28;20042;-87
2022/10/08 01:32:25;;;;;;;27.00;12.20;;;;;;;13.64;85.73;100161.88;5083898;28;20040;-88
2022/10/08 01:34:57;;;;;;;30.50;13.18;;;;;;;13.77;85.65;100163.38;5078522;28;20619;-88
2022/10/08 01:37:35;;;;;;;30.87;12.83;;;;;;;13.74;85.18;100166.31;5072808;28;20059;-88
2022/10/08 01:40:06;;;;;;;25.88;11.60;;;;;;;13.82;85.43;100158.41;5072842;28;20047;-88
2022/10/08 01:42:33;;;;;;;31.73;13.48;;;;;;;13.90;85.10;100169.19;5057151;28;20089;-87
2022/10/08 01:45:03;;;;;;;23.35;12.07;;;;;;;13.84;85.20;100156.41;5061739;28;20483;-88
2022/10/08 01:47:30;;;;;;;24.52;11.70;;;;;;;13.88;85.91;100155.97;5073239;28;20440;-87
2022/10/08 01:50:06;;;;;;;21.40;12.15;;;;;;;13.92;85.46;100163.69;5068459;28;20047;-87
2022/10/08 01:52:41;;;;;;;29.85;12.65;;;;;;;13.88;85.11;100160.47;5036482;28;20519;-87
2022/10/08 01:55:14;;;;;;;21.05;12.68;;;;;;;13.92;84.85;100158.34;5070592;28;20051;-87
2022/10/08 01:57:41;;;;;;;23.83;12.48;;;;;;;13.95;84.90;100166.91;5057547;28;20055;-87
2022/10/08 02:00:11;;;;;;;24.42;12.23;;;;;;;13.88;85.35;100158.66;5054802;28;20059;-88
2022/10/08 02:02:39;;;;;;;33.67;12.30;;;;;;;13.93;85.43;100165.38;5038035;28;20043;-87
2022/10/08 02:05:06;;;;;;;22.77;12.48;;;;;;;13.92;85.42;100156.53;5041860;28;20055;-88
2022/10/08 02:07:37;;;;;;;20.15;11.70;;;;;;;13.85;85.48;100156.28;5052813;28;20055;-88
2022/10/08 02:10:03;;;;;;;25.90;13.35;;;;;;;13.86;86.01;100155.28;5070045;28;20096;-87
2022/10/08 02:12:30;;;;;;;22.40;12.38;;;;;;;13.96;85.22;100157.91;5061799;28;20051;-87
2022/10/08 02:14:58;;;;;;;26.52;12.88;;;;;;;13.99;85.24;100156.75;5083899;28;20040;-88
2022/10/08 02:17:52;;;;;;;27.58;15.40;;;;;;;13.83;85.43;100158.25;5070181;28;20048;-87
2022/10/08 02:20:33;;;;;;;31.48;15.73;;;;;;;13.83;86.00;100152.91;5068742;28;20047;-87
2022/10/08 02:23:28;;;;;;;29.33;15.65;;;;;;;13.81;85.93;100154.06;5073652;28;20040;-87
2022/10/08 02:25:58;;;;;;;26.88;15.38;;;;;;;13.88;85.77;100152.47;5071850;28;20348;-87
2022/10/08 02:28:33;;;;;;;19.08;13.38;;;;;;;13.90;84.91;100158.50;5050538;28;20112;-87
2022/10/08 02:31:13;;;;;;;33.42;12.88;;;;;;;13.90;84.28;100155.84;5061359;28;20040;-87
2022/10/08 02:33:43;;;;;;;37.58;12.82;;;;;;;13.97;84.38;100153.38;5043291;28;20483;-87
2022/10/08 02:36:11;;;;;;;22.75;12.80;;;;;;;13.97;84.83;100150.72;5042147;28;20109;-87
2022/10/08 02:38:51;;;;;;;26.67;12.98;;;;;;;13.84;85.06;100154.59;5069573;28;20442;-87
2022/10/08 02:41:20;;;;;;;27.88;12.30;;;;;;;13.92;85.35;100156.53;5038737;28;20050;-87
2022/10/08 02:43:48;;;;;;;34.00;13.20;;;;;;;13.90;85.79;100154.00;5076749;28;20122;-87
2022/10/08 02:46:18;;;;;;;32.65;13.63;;;;;;;13.88;85.98;100161.31;5059740;28;20048;-87
2022/10/08 02:48:56;;;;;;;27.60;12.65;;;;;;;13.81;85.82;100148.72;5068444;28;20081;-87
2022/10/08 02:51:24;;;;;;;24.35;12.30;;;;;;;13.92;85.58;100155.66;5050635;28;20044;-87
2022/10/08 02:53:51;;;;;;;21.75;11.50;;;;;;;13.97;85.22;100156.94;5056438;28;20070;-87
2022/10/08 02:56:23;;;;;;;23.75;12.20;;;;;;;13.92;84.83;100153.88;5057649;28;20131;-87
2022/10/08 02:58:50;;;;;;;26.40;12.82;;;;;;;13.95;85.13;100160.72;5090047;28;20043;-87
2022/10/08 03:01:25;;;;;;;20.60;12.07;;;;;;;13.86;85.37;100163.28;5080931;28;20074;-87
2022/10/08 03:03:59;;;;;;;27.05;12.73;;;;;;;13.81;85.84;100154.06;5052489;28;20513;-87
2022/10/08 03:06:27;;;;;;;36.05;12.85;;;;;;;13.88;86.15;100152.47;5054534;28;20052;-87
2022/10/08 03:08:58;;;;;;;22.67;13.52;;;;;;;13.96;85.38;100157.91;5071789;28;20036;-88
2022/10/08 03:11:26;;;;;;;34.42;14.65;;;;;;;13.99;85.44;100156.75;5054844;28;20048;-87
2022/10/08 03:13:57;;;;;;;27.77;13.55;;;;;;;13.95;85.61;100164.25;5067445;28;20051;-87
2022/10/08 03:16:29;;;;;;;34.03;14.48;;;;;;;13.89;85.65;100172.81;5076142;28;20040;-87
2022/10/08 03:18:58;;;;;;;19.65;12.85;;;;;;;13.89;85.54;100168.34;5081296;28;20044;-87
2022/10/08 03:21:27;;;;;;;25.58;12.25;;;;;;;13.95;85.07;100168.75;5070813;28;20050;-87
2022/10/08 03:23:53;;;;;;;21.23;13.57;;;;;;;13.93;85.03;100163.53;5069445;28;20526;-86
2022/10/08 03:26:20;;;;;;;27.35;13.48;;;;;;;13.99;85.12;100170.97;5082092;28;20051;-87
2022/10/08 03:28:47;;;;;;;20.58;12.50;;;;;;;13.95;85.23;100169.56;5036838;28;20510;-87
2022/10/08 03:31:13;;;;;;;31.60;13.75;;;;;;;13.91;85.34;100170.84;5067443;28;20052;-87
2022/10/08 03:33:40;;;;;;;30.95;13.60;;;;;;;13.89;85.58;100170.16;5052220;28;20047;-87
2022/10/08 03:36:07;;;;;;;26.25;13.30;;;;;;;13.85;85.84;100187.47;5060667;28;20058;-87
2022/10/08 03:38:34;;;;;;;26.77;13.60;;;;;;;13.86;85.73;100184.63;5057589;28;20052;-87
2022/10/08 03:41:01;;;;;;;27.17;13.77;;;;;;;13.82;85.83;100191.28;5065283;28;20073;-88
2022/10/08 03:43:32;;;;;;;31.02;13.00;;;;;;;13.85;85.58;100187.47;5044416;28;20051;-88
2022/10/08 03:45:59;;;;;;;26.38;12.45;;;;;;;13.89;85.40;100187.03;5078419;28;20112;-87
2022/10/08 03:48:26;;;;;;;25.58;12.80;;;;;;;13.91;85.14;100197.56;5034238;28;20067;-87
2022/10/08 03:50:59;;;;;;;23.30;13.02;;;;;;;13.79;85.39;100198.72;5055995;28;20514;-86
2022/10/08 03:53:26;;;;;;;25.20;11.60;;;;;;;13.81;85.38;100199.44;5058918;28;20042;-87
2022/10/08 03:55:53;;;;;;;24.95;13.20;;;;;;;13.80;85.54;100197.75;5077085;28;20444;-87
2022/10/08 03:58:20;;;;;;;28.38;12.50;;;;;;;13.78;85.63;100202.41;5084747;28;20044;-87
2022/10/08 04:00:57;;;;;;;24.92;13.52;;;;;;;13.64;86.14;100201.06;5053980;28;20056;-87
2022/10/08 04:03:24;;;;;;;27.80;13.30;;;;;;;13.74;86.11;100212.53;5069065;28;20040;-87
2022/10/08 04:05:51;;;;;;;27.08;12.10;;;;;;;13.74;86.21;100212.53;5063294;28;20862;-87
2022/10/08 04:08:18;;;;;;;23.83;13.02;;;;;;;13.78;86.03;100205.06;5060147;28;20036;-87
2022/10/08 04:10:44;;;;;;;24.60;12.93;;;;;;;13.79;86.35;100201.41;5071970;28;20433;-87
2022/10/08 04:13:11;;;;;;;34.05;12.93;;;;;;;13.78;86.84;100215.75;5043999;28;20040;-87
2022/10/08 04:15:38;;;;;;;22.85;13.02;;;;;;;13.80;86.47;100209.28;5071578;28;20380;-87
2022/10/08 04:18:06;;;;;;;25.05;11.65;;;;;;;13.82;86.16;100209.13;5060899;28;20082;-87
2022/10/08 04:20:33;;;;;;;20.90;12.18;;;;;;;13.85;86.02;100211.50;5076455;28;20040;-87
2022/10/08 04:22:59;;;;;;;32.88;13.02;;;;;;;13.80;86.33;100219.94;5037867;28;20438;-87
2022/10/08 04:25:26;;;;;;;24.05;12.30;;;;;;;13.85;85.81;100214.16;5059659;28;20540;-87
2022/10/08 04:27:53;;;;;;;23.70;12.70;;;;;;;13.79;85.98;100212.94;5045073;28;20040;-87
2022/10/08 04:30:20;;;;;;;26.88;13.13;;;;;;;13.80;86.05;100213.78;5061341;28;20051;-87
2022/10/08 04:32:46;;;;;;;22.88;12.10;;;;;;;13.76;85.74;100212.38;5086308;28;20506;-87
2022/10/08 04:35:15;;;;;;;25.50;12.90;;;;;;;13.72;85.54;100219.00;5060835;28;20076;-87
2022/10/08 04:37:41;;;;;;;21.38;11.70;;;;;;;13.73;85.10;100213.50;5059717;28;20099;-87
2022/10/08 04:40:08;;;;;;;27.35;13.52;;;;;;;13.70;85.21;100211.13;5044995;28;20101;-87
2022/10/08 04:42:35;;;;;;;21.73;12.60;;;;;;;13.67;85.25;100214.09;5075222;28;20051;-87
2022/10/08 04:45:02;;;;;;;30.60;13.65;;;;;;;13.68;85.04;100219.28;5060422;28;20529;-87
2022/10/08 04:47:29;;;;;;;23.50;12.43;;;;;;;13.67;85.28;100212.28;5049018;28;20238;-87
2022/10/08 04:49:55;;;;;;;40.95;13.77;;;;;;;13.64;85.27;100222.41;5073204;28;20040;-87
2022/10/08 04:52:22;;;;;;;28.27;12.32;;;;;;;13.65;85.20;100219.56;5076761;28;20093;-87
2022/10/08 04:55:08;;;;;;;31.73;12.95;;;;;;;13.44;85.29;100222.47;5071032;28;20059;-86
2022/10/08 04:57:35;;;;;;;36.65;12.65;;;;;;;13.61;85.03;100223.53;5058029;28;20052;-87
2022/10/08 05:00:03;;;;;;;27.60;12.88;;;;;;;13.56;84.80;100223.13;5067169;28;20105;-86
2022/10/08 05:02:44;;;;;;;24.10;13.88;;;;;;;13.55;84.88;100223.28;5063573;28;20151;-87
2022/10/08 05:05:11;;;;;;;29.98;13.20;;;;;;;13.53;85.35;100231.41;5078127;28;20052;-87
2022/10/08 05:07:38;;;;;;;27.02;12.73;;;;;;;13.56;85.09;100227.59;5073065;28;20124;-86
2022/10/08 05:10:05;;;;;;;25.13;12.98;;;;;;;13.50;84.98;100230.88;5060483;28;20055;-87
2022/10/08 05:12:32;;;;;;;27.98;13.38;;;;;;;13.49;84.80;100230.03;5074541;28;20448;-87
2022/10/08 05:14:59;;;;;;;27.38;13.27;;;;;;;13.47;84.93;100232.00;5060923;28;20050;-87
2022/10/08 05:17:25;;;;;;;27.42;13.27;;;;;;;13.47;84.69;100234.66;5061311;28;20051;-87
2022/10/08 05:19:52;;;;;;;26.23;14.50;;;;;;;13.52;84.83;100235.06;5043818;28;20104;-87
2022/10/08 05:22:19;;;;;;;26.80;12.65;;;;;;;13.51;84.51;100240.53;5071606;28;20051;-88
2022/10/08 05:24:46;;;;;;;23.63;12.73;;;;;;;13.50;84.35;100229.03;5063095;28;20131;-87
2022/10/08 05:27:13;;;;;;;28.92;13.43;;;;;;;13.45;84.60;100229.47;5075892;28;20483;-88
2022/10/08 05:29:39;;;;;;;22.70;13.45;;;;;;;13.43;84.83;100230.59;5076608;28;20039;-87
2022/10/08 05:32:06;;;;;;;31.85;14.13;;;;;;;13.44;84.75;100235.81;5055661;28;20713;-87
2022/10/08 05:34:33;;;;;;;32.35;13.57;;;;;;;13.50;84.71;100239.72;5055225;28;20039;-87
2022/10/08 05:37:00;;;;;;;27.88;13.30;;;;;;;13.51;84.64;100243.22;5082572;28;20411;-87
2022/10/08 05:39:26;;;;;;;27.33;14.18;;;;;;;13.52;84.63;100255.59;5038992;28;20074;-87
2022/10/08 05:41:53;;;;;;;27.65;13.30;;;;;;;13.54;85.13;100249.13;5071721;28;20055;-87
2022/10/08 05:44:20;;;;;;;28.60;14.18;;;;;;;13.56;85.21;100251.63;5042988;28;20407;-87
2022/10/08 05:46:47;;;;;;;27.88;14.02;;;;;;;13.50;85.54;100253.03;5064686;28;20134;-88
2022/10/08 05:49:20;;;;;;;32.65;15.07;;;;;;;13.38;85.50;100257.72;5058866;28;20142;-87
2022/10/08 05:51:48;;;;;;;28.98;13.73;;;;;;;13.44;85.33;100264.31;5050302;28;20040;-87
2022/10/08 05:54:15;;;;;;;27.05;12.75;;;;;;;13.51;84.66;100269.88;5059924;28;20487;-88
2022/10/08 05:56:42;;;;;;;25.30;12.50;;;;;;;13.50;84.88;100270.88;5055462;28;20044;-87
2022/10/08 05:59:18;;;;;;;22.48;13.57;;;;;;;13.35;85.59;100282.00;5075877;28;20096;-86
2022/10/08 06:01:45;;;;;;;25.55;13.52;;;;;;;13.48;85.21;100276.34;5058423;28;20075;-87
2022/10/08 06:04:13;;;;;;;25.48;14.10;;;;;;;13.52;85.38;100285.78;5058930;28;20062;-87
2022/10/08 06:06:41;;;;;;;30.05;12.77;;;;;;;13.51;85.18;100289.44;5059270;28;20043;-86
2022/10/08 06:09:11;;;;;;;22.67;13.52;;;;;;;13.48;85.62;100295.03;5068648;28;20098;-87
2022/10/08 06:11:38;;;;;;;25.88;12.52;;;;;;;13.50;85.52;100287.72;5051073;28;20104;-87
2022/10/08 06:14:06;;;;;;;37.90;13.77;;;;;;;13.52;85.50;100295.59;5057491;28;20044;-87
2022/10/08 06:16:33;;;;;;;42.38;16.58;;;;;;;13.54;85.58;100296.31;5058319;28;20058;-87
2022/10/08 06:19:02;;;;;;;32.40;16.05;;;;;;;13.54;86.17;100302.47;5057192;28;20055;-87
2022/10/08 06:21:29;;;;;;;25.80;13.75;;;;;;;13.62;86.18;100301.75;5085514;28;20544;-86
2022/10/08 06:23:58;;;;;;;31.27;16.20;;;;;;;13.58;87.16;100303.84;5059066;28;20055;-87
2022/10/08 06:26:34;;;;;;;30.15;15.02;;;;;;;13.46;87.08;100305.88;5057608;28;20097;-87
2022/10/08 06:29:04;;;;;;;29.48;14.60;;;;;;;13.58;86.59;100317.19;5069156;28;20119;-88
2022/10/08 06:31:32;;;;;;;28.02;14.43;;;;;;;13.61;86.51;100306.25;5054736;28;20052;-88
2022/10/08 06:34:01;;;;;;;29.55;15.50;;;;;;;13.61;86.38;100316.94;5075311;28;20043;-87
2022/10/08 06:36:28;;;;;;;32.92;15.90;;;;;;;13.59;86.79;100315.41;5060556;28;20047;-88
2022/10/08 06:38:56;;;;;;;31.30;16.13;;;;;;;13.63;86.75;100319.44;5070878;28;20048;-88
2022/10/08 06:41:24;;;;;;;28.27;14.20;;;;;;;13.67;86.90;100318.19;5083446;28;20036;-88
2022/10/08 06:43:51;;;;;;;28.48;16.65;;;;;;;13.67;86.97;100320.84;5038868;28;20128;-88
2022/10/08 06:46:18;;;;;;;26.67;15.18;;;;;;;13.75;86.62;100328.97;5076681;28;20467;-87
2022/10/08 06:48:45;;;;;;;31.88;15.50;;;;;;;13.77;86.64;100324.34;5054770;28;20085;-87
2022/10/08 06:51:15;;;;;;;31.42;15.65;;;;;;;13.74;87.06;100334.44;5060200;28;20657;-87
2022/10/08 06:53:44;;;;;;;30.75;15.25;;;;;;;13.82;86.89;100337.25;5058130;28;20572;-87
2022/10/08 06:56:13;;;;;;;26.38;15.95;;;;;;;13.84;86.87;100335.25;5055936;28;20110;-87
2022/10/08 06:58:42;;;;;;;24.95;15.60;;;;;;;13.88;86.95;100339.34;5067248;28;20039;-88
2022/10/08 07:01:25;;;;;;;29.83;14.73;;;;;;;13.85;87.68;100337.81;5057377;28;20097;-88
2022/10/08 07:03:59;;;;;;;28.40;15.93;;;;;;;13.97;87.25;100335.81;5072410;28;20498;-87
2022/10/08 07:06:26;;;;;;;30.65;17.15;;;;;;;14.01;87.02;100339.00;5075537;28;20048;-87
2022/10/08 07:08:54;;;;;;;27.00;16.10;;;;;;;14.02;87.54;100346.06;5055897;28;20031;-87
2022/10/08 07:11:22;;;;;;;31.05;16.00;;;;;;;14.07;87.00;100343.78;5063811;28;20059;-87
2022/10/08 07:13:49;;;;;;;32.60;15.50;;;;;;;14.06;87.83;100344.75;5078164;28;20559;-87
2022/10/08 07:16:18;;;;;;;30.95;15.43;;;;;;;14.10;87.66;100356.84;5078031;28;20040;-88
2022/10/08 07:18:48;;;;;;;27.45;14.88;;;;;;;14.15;87.42;100359.09;5060179;28;20052;-88
2022/10/08 07:21:16;;;;;;;27.65;17.08;;;;;;;14.16;87.64;100361.59;5040901;28;20067;-87
2022/10/08 07:23:43;;;;;;;48.83;21.33;;;;;;;14.19;87.59;100366.63;5075859;28;20343;-86
2022/10/08 07:26:18;;;;;;;41.42;20.63;;;;;;;14.20;87.61;100365.66;5043541;28;20083;-87
2022/10/08 07:29:12;;;;;;;46.75;21.95;;;;;;;14.19;88.13;100371.16;5068106;28;20619;-88
2022/10/08 07:31:39;;;;;;;52.72;24.13;;;;;;;14.32;87.32;100372.50;5071576;28;20456;-87
2022/10/08 07:34:09;;;;;;;45.88;21.67;;;;;;;14.39;87.07;100367.41;5057565;28;20068;-86
2022/10/08 07:36:36;;;;;;;44.85;21.25;;;;;;;14.45;87.02;100371.31;5074302;28;20452;-86
2022/10/08 07:39:06;;;;;;;36.72;21.40;;;;;;;14.51;86.92;100368.06;5089937;28;20035;-86
2022/10/08 07:41:33;;;;;;;51.58;21.83;;;;;;;14.55;86.93;100372.13;5089810;28;20047;-86
2022/10/08 07:44:01;;;;;;;42.83;19.67;;;;;;;14.58;86.72;100374.53;5083918;28;20066;-86
2022/10/08 07:46:31;;;;;;;44.30;22.52;;;;;;;14.60;86.69;100380.56;5087537;28;20050;-85
2022/10/08 07:48:58;;;;;;;42.70;19.67;;;;;;;14.62;86.87;100383.09;5070235;28;20093;-86
2022/10/08 07:51:25;;;;;;;50.30;21.88;;;;;;;14.64;86.93;100383.78;5073618;28;20051;-86
2022/10/08 07:53:52;;;;;;;44.45;19.85;;;;;;;14.66;86.91;100385.31;5085244;28;20487;-85
2022/10/08 07:56:22;;;;;;;34.25;17.85;;;;;;;14.68;87.13;100388.69;5077025;28;20518;-86
2022/10/08 07:58:49;;;;;;;35.38;16.05;;;;;;;14.70;86.41;100381.34;5060609;28;20040;-85
2022/10/08 08:01:22;;;;;;;35.78;13.20;;;;;;;14.73;85.69;100382.88;5075302;28;20486;-85
2022/10/08 08:03:54;;;;;;;31.95;13.75;;;;;;;14.74;85.52;100388.09;5088030;28;20036;-85
2022/10/08 08:06:21;;;;;;;27.90;12.43;;;;;;;14.80;85.95;100386.63;5088230;28;20051;-86
2022/10/08 08:08:47;;;;;;;26.70;11.43;;;;;;;14.83;86.03;100386.34;5086504;28;20089;-86
2022/10/08 08:11:16;;;;;;;25.88;11.07;;;;;;;14.87;85.88;100385.06;5070708;28;20040;-86
2022/10/08 08:13:43;;;;;;;29.63;11.32;;;;;;;14.91;85.60;100381.09;5102971;28;20046;-85
2022/10/08 08:16:18;;;;;;;29.38;12.00;;;;;;;14.92;85.28;100384.63;5089205;28;20048;-85
2022/10/08 08:18:48;;;;;;;28.23;10.18;;;;;;;15.00;85.23;100386.53;5088666;28;20079;-85
2022/10/08 08:21:17;;;;;;;37.10;10.32;;;;;;;15.06;84.13;100397.47;5061634;28;20048;-85
2022/10/08 08:23:46;;;;;;;28.13;9.88;;;;;;;15.06;83.68;100393.94;5086837;28;20059;-85
2022/10/08 08:26:21;;;;;;;20.55;8.38;;;;;;;15.00;83.18;100395.41;5063485;28;20110;-85
2022/10/08 08:28:50;;;;;;;21.70;8.60;;;;;;;15.06;82.79;100402.84;5083327;28;20084;-86
2022/10/08 08:31:27;;;;;;;24.73;7.70;;;;;;;15.05;81.88;100403.81;5082683;28;20093;-85
2022/10/08 08:33:56;;;;;;;20.52;7.45;;;;;;;15.07;81.69;100390.28;5090242;28;20044;-85
2022/10/08 08:36:25;;;;;;;20.17;6.80;;;;;;;15.10;81.55;100396.16;5085880;28;20039;-84
2022/10/08 08:38:52;;;;;;;23.25;7.80;;;;;;;15.12;81.29;100398.72;5089271;28;20475;-84
2022/10/08 08:41:34;;;;;;;20.65;6.80;;;;;;;15.10;80.55;100404.19;5080473;28;20545;-84
2022/10/08 08:44:17;;;;;;;24.00;6.95;;;;;;;15.07;79.29;100412.53;5091079;28;20433;-84
2022/10/08 08:46:55;;;;;;;23.05;6.30;;;;;;;15.12;79.04;100417.44;5062789;28;20040;-85
2022/10/08 08:49:32;;;;;;;18.63;6.68;;;;;;;15.12;77.61;100420.94;5090543;28;20043;-85
2022/10/08 08:52:01;;;;;;;19.63;6.47;;;;;;;15.21;77.92;100427.22;5074813;28;20394;-87
2022/10/08 08:54:28;;;;;;;19.42;6.07;;;;;;;15.19;77.31;100432.72;5072822;28;20464;-85
2022/10/08 08:56:54;;;;;;;22.35;6.13;;;;;;;15.19;76.87;100430.06;5069998;28;20044;-85
2022/10/08 08:59:28;;;;;;;18.30;6.25;;;;;;;15.17;75.23;100428.53;5079237;28;20548;-85
2022/10/08 09:02:00;;;;;;;21.88;6.55;;;;;;;15.14;74.15;100437.69;5075591;28;20118;-85
2022/10/08 09:04:33;;;;;;;23.50;6.32;;;;;;;15.13;75.20;100435.97;5090991;28;20051;-84
2022/10/08 09:07:03;;;;;;;16.38;5.10;;;;;;;15.14;75.38;100442.19;5098106;28;20043;-84
2022/10/08 09:09:39;;;;;;;21.42;7.00;;;;;;;15.09;74.33;100445.31;5087858;28;20054;-83
2022/10/08 09:12:16;;;;;;;20.52;6.50;;;;;;;15.10;74.53;100440.81;5058489;28;20457;-84
2022/10/08 09:14:50;;;;;;;23.15;6.70;;;;;;;15.17;75.34;100433.88;5088631;28;20044;-84
2022/10/08 09:17:19;;;;;;;24.58;7.78;;;;;;;15.18;75.46;100431.03;5067049;28;20478;-84
2022/10/08 09:19:47;;;;;;;18.58;6.63;;;;;;;15.21;76.17;100437.91;5073661;28;20052;-84
2022/10/08 09:22:20;;;;;;;16.90;5.40;;;;;;;15.23;75.80;100441.28;5085658;28;20127;-84
2022/10/08 09:24:50;;;;;;;22.85;5.70;;;;;;;15.28;76.00;100432.81;5093163;28;20035;-83
2022/10/08 09:27:18;;;;;;;25.85;6.10;;;;;;;15.32;75.11;100436.88;5087785;28;20093;-84
2022/10/08 09:29:45;;;;;;;24.17;6.47;;;;;;;15.33;74.60;100434.03;5076653;28;20047;-83
2022/10/08 09:32:16;;;;;;;17.70;6.13;;;;;;;15.35;73.88;100447.25;5091235;28;20394;-84
2022/10/08 09:34:45;;;;;;;18.50;4.95;;;;;;;15.35;73.46;100448.09;5076311;28;20068;-84
2022/10/08 09:37:23;;;;;;;21.13;5.20;;;;;;;15.31;72.05;100440.53;5089504;28;20479;-85
2022/10/08 09:40:10;;;;;;;11.43;3.90;;;;;;;15.30;71.81;100452.22;5070370;28;20134;-86
2022/10/08 09:42:37;;;;;;;14.95;4.47;;;;;;;15.38;72.54;100449.63;5100254;28;20117;-86
2022/10/08 09:45:47;;;;;;;12.02;4.05;;;;;;;15.28;70.50;100457.72;5071699;28;20056;-86
2022/10/08 09:48:25;;;;;;;12.88;3.65;;;;;;;15.33;69.36;100450.09;5102750;28;20483;-86
2022/10/08 09:50:54;;;;;;;20.42;4.50;;;;;;;15.45;71.49;100452.56;5070704;28;20043;-86
2022/10/08 09:53:22;;;;;;;19.70;6.78;;;;;;;15.46;71.54;100456.91;5099346;28;20039;-86
2022/10/08 09:56:01;;;;;;;12.80;3.90;;;;;;;15.44;71.61;100450.84;5086215;28;20441;-86
2022/10/08 09:58:31;;;;;;;17.02;4.15;;;;;;;15.53;71.79;100455.31;5088713;28;20126;-86
2022/10/08 10:01:24;;;;;;;17.40;3.97;;;;;;;15.47;69.65;100446.06;5061407;28;20051;-86
2022/10/08 10:03:56;;;;;;;17.23;4.15;;;;;;;15.59;69.92;100444.81;5067250;28;20120;-85
2022/10/08 10:06:25;;;;;;;9.10;3.22;;;;;;;15.64;71.29;100452.38;5100399;28;20395;-86
2022/10/08 10:09:25;;;;;;;13.18;3.65;;;;;;;15.57;68.52;100438.78;5078312;28;20044;-86
2022/10/08 10:11:58;;;;;;;20.10;4.00;;;;;;;15.66;69.76;100446.88;5053497;28;20077;-83
2022/10/08 10:14:45;;;;;;;8.68;3.38;;;;;;;15.55;67.87;100438.09;5073672;28;20088;-83
2022/10/08 10:17:18;;;;;;;11.75;3.42;;;;;;;15.67;67.65;100453.91;5074370;28;20077;-83
2022/10/08 10:19:56;;;;;;;11.95;3.90;;;;;;;15.63;67.21;100459.56;5066388;28;20052;-83
2022/10/08 10:22:36;;;;;;;12.93;3.13;;;;;;;15.67;68.27;100454.75;5072858;28;20040;-83
2022/10/08 10:25:29;;;;;;;10.52;3.03;;;;;;;15.68;68.43;100455.63;5091341;28;20070;-82
2022/10/08 10:28:00;;;;;;;12.20;4.05;;;;;;;15.79;69.30;100458.06;5091615;28;20048;-83
2022/10/08 10:30:27;;;;;;;8.85;2.90;;;;;;;15.84;67.71;100450.41;5073551;28;20135;-83
2022/10/08 10:33:16;;;;;;;10.50;2.85;;;;;;;15.72;67.73;100444.47;5104590;28;20036;-82
2022/10/08 10:36:05;;;;;;;15.60;3.05;;;;;;;15.72;66.22;100451.66;5084398;28;20074;-82
2022/10/08 10:38:37;;;;;;;12.52;3.25;;;;;;;15.84;65.40;100463.81;5069877;28;20035;-83
2022/10/08 10:41:37;;;;;;;14.40;3.15;;;;;;;15.77;65.65;100452.88;5087862;28;20079;-83
2022/10/08 10:44:15;;;;;;;10.43;2.92;;;;;;;15.83;67.13;100454.94;5088576;28;20044;-83
2022/10/08 10:46:45;;;;;;;13.48;3.67;;;;;;;15.90;67.70;100447.13;5089077;28;20067;-82
2022/10/08 10:49:21;;;;;;;10.60;2.90;;;;;;;15.84;65.06;100448.56;5093799;28;20097;-82
2022/10/08 10:51:57;;;;;;;10.02;2.85;;;;;;;15.90;66.52;100452.50;5082957;28;20044;-83
2022/10/08 10:54:36;;;;;;;14.63;3.00;;;;;;;15.89;66.06;100458.00;5076053;28;20044;-82
2022/10/08 10:57:27;;;;;;;9.93;2.70;;;;;;;15.96;63.00;100451.88;5064147;28;20109;-83
2022/10/08 11:00:45;;;;;;;8.15;2.33;;;;;;;15.86;62.55;100448.44;5078167;28;20075;-83
2022/10/08 11:03:21;;;;;;;6.40;1.90;;;;;;;15.93;64.74;100452.19;5021382;28;20085;-83
2022/10/08 11:05:57;;;;;;;6.05;2.40;;;;;;;15.96;65.77;100456.38;5079680;28;20044;-83
2022/10/08 11:08:39;;;;;;;14.80;3.35;;;;;;;15.95;64.57;100452.00;5080520;28;20042;-84
2022/10/08 11:11:09;;;;;;;16.33;2.63;;;;;;;16.06;65.55;100454.44;5079857;28;20049;-84
2022/10/08 11:13:55;;;;;;;15.15;2.83;;;;;;;16.01;63.90;100446.88;5086739;28;20032;-83
2022/10/08 11:17:02;;;;;;;8.75;2.22;;;;;;;16.05;64.79;100450.06;5095159;28;20047;-84
2022/10/08 11:19:50;;;;;;;12.93;2.53;;;;;;;16.13;62.90;100444.81;5078707;28;20071;-84
2022/10/08 11:22:37;;;;;;;8.50;2.38;;;;;;;16.23;64.03;100444.66;5075728;28;20044;-84
2022/10/08 11:25:19;;;;;;;8.50;2.55;;;;;;;16.26;63.43;100450.56;5071819;28;20060;-84
2022/10/08 11:27:55;;;;;;;6.82;1.75;;;;;;;16.28;59.16;100443.22;5090946;28;20510;-83
2022/10/08 11:30:28;;;;;;;9.88;2.17;;;;;;;16.30;62.93;100445.72;5094065;28;20067;-83
2022/10/08 11:32:56;;;;;;;8.00;2.05;;;;;;;16.23;61.27;100439.31;5068803;28;20044;-83
2022/10/08 11:35:46;;;;;;;10.25;2.20;;;;;;;16.19;62.01;100446.00;5085973;28;20093;-83